Time;durP1;ratioP1;P1;durP2;ratioP2;P2;SDS_P1;SDS_P2;PMS_P1;PMS_P2;Temp;Humidity;BMP_temperature;BMP_pressure;BME280_temperature;BME280_humidity;BME280_pressure;Samples;Min_cycle;Max_cycle;Signal;HPM_P1;HPM_P2
2021/11/08 00:00:37;;;;;;;40.70;22.52;;;;;;;10.04;100.00;97462.34;4997364;28;20041;-86
2021/11/08 00:03:05;;;;;;;40.45;22.20;;;;;;;10.01;100.00;97454.53;5005437;28;20504;-86
2021/11/08 00:05:36;;;;;;;40.00;21.17;;;;;;;10.01;100.00;97457.19;5010861;28;20034;-87
2021/11/08 00:08:03;;;;;;;38.42;21.33;;;;;;;9.97;100.00;97446.78;4997574;28;20088;-86
2021/11/08 00:10:32;;;;;;;38.35;21.08;;;;;;;10.07;100.00;97453.28;4994469;28;20026;-86
2021/11/08 00:12:59;;;;;;;44.10;19.42;;;;;;;10.04;100.00;97449.00;5012403;28;20049;-86
2021/11/08 00:15:32;;;;;;;34.78;19.00;;;;;;;10.10;100.00;97445.94;5013091;28;20017;-86
2021/11/08 00:18:04;;;;;;;34.50;20.77;;;;;;;10.06;100.00;97436.38;4998430;28;20026;-86
2021/11/08 00:20:41;;;;;;;40.17;21.03;;;;;;;10.10;100.00;97442.41;4998891;28;20547;-86
2021/11/08 00:23:09;;;;;;;38.83;21.35;;;;;;;10.16;100.00;97440.25;4995662;28;20169;-85
2021/11/08 00:25:35;;;;;;;46.65;23.23;;;;;;;10.18;100.00;97448.19;5012439;28;20036;-86
2021/11/08 00:28:01;;;;;;;40.70;22.42;;;;;;;10.18;100.00;97448.19;4984172;28;20022;-85
2021/11/08 00:30:30;;;;;;;44.17;25.02;;;;;;;10.17;100.00;97441.13;5013032;28;20531;-88
2021/11/08 00:32:56;;;;;;;49.67;26.25;;;;;;;10.29;100.00;97453.72;5020231;28;20555;-86
2021/11/08 00:35:22;;;;;;;46.38;25.20;;;;;;;10.26;100.00;97443.22;5012672;28;20022;-86
2021/11/08 00:37:48;;;;;;;55.05;27.88;;;;;;;10.31;100.00;97438.41;5013231;28;20401;-86
2021/11/08 00:40:14;;;;;;;55.00;28.08;;;;;;;10.26;100.00;97432.53;5011979;28;20481;-85
2021/11/08 00:42:40;;;;;;;54.42;26.63;;;;;;;10.15;100.00;97435.84;5008129;28;20030;-85
2021/11/08 00:45:07;;;;;;;45.42;23.02;;;;;;;10.10;100.00;97429.91;5005065;28;20429;-87
2021/11/08 00:47:34;;;;;;;48.58;22.45;;;;;;;10.02;100.00;97428.66;5012606;28;20552;-86
2021/11/08 00:50:00;;;;;;;44.03;22.38;;;;;;;9.86;100.00;97428.75;4992856;28;20113;-85
2021/11/08 00:52:26;;;;;;;49.63;22.48;;;;;;;9.74;100.00;97418.81;4976898;28;20501;-86
2021/11/08 00:54:52;;;;;;;41.92;22.55;;;;;;;9.69;100.00;97431.59;4976870;28;20046;-85
2021/11/08 00:57:21;;;;;;;46.65;25.20;;;;;;;9.77;100.00;97434.66;4993327;28;20037;-85
2021/11/08 00:59:47;;;;;;;43.42;23.67;;;;;;;9.70;100.00;97438.63;4977343;28;20038;-87
2021/11/08 01:02:13;;;;;;;48.97;23.75;;;;;;;9.70;100.00;97428.81;4969994;28;20041;-86
2021/11/08 01:04:41;;;;;;;44.83;24.17;;;;;;;9.74;100.00;97437.50;4973939;28;20101;-85
2021/11/08 01:07:08;;;;;;;52.28;23.80;;;;;;;9.76;100.00;97432.91;4992751;28;20065;-87
2021/11/08 01:09:34;;;;;;;57.97;26.58;;;;;;;9.73;100.00;97422.41;4977206;28;20054;-86
2021/11/08 01:12:20;;;;;;;49.47;26.30;;;;;;;9.71;100.00;97433.22;4976661;28;20034;-86
2021/11/08 01:14:46;;;;;;;52.30;27.40;;;;;;;9.65;100.00;97416.69;4992663;28;20033;-86
2021/11/08 01:17:13;;;;;;;50.65;26.17;;;;;;;9.66;100.00;97397.03;4977681;28;20026;-87
2021/11/08 01:19:39;;;;;;;47.13;24.60;;;;;;;9.56;100.00;97393.22;4985180;28;20414;-86
2021/11/08 01:22:13;;;;;;;48.50;23.95;;;;;;;9.57;100.00;97400.25;4975208;28;20058;-86
2021/11/08 01:24:40;;;;;;;48.92;25.40;;;;;;;9.65;100.00;97414.88;4993615;28;20045;-86
2021/11/08 01:27:06;;;;;;;45.08;24.45;;;;;;;9.53;100.00;97390.72;4974754;28;20117;-87
2021/11/08 01:29:32;;;;;;;48.63;24.45;;;;;;;9.51;100.00;97398.81;4976199;28;20030;-86
2021/11/08 01:32:05;;;;;;;46.65;23.40;;;;;;;9.49;100.00;97397.19;4975983;28;20500;-86
2021/11/08 01:34:32;;;;;;;39.95;20.80;;;;;;;9.46;100.00;97397.38;4976675;28;20031;-86
2021/11/08 01:37:00;;;;;;;48.10;21.23;;;;;;;9.40;100.00;97395.94;4992206;28;20037;-86
2021/11/08 01:39:37;;;;;;;44.53;22.33;;;;;;;9.30;100.00;97383.22;4992421;28;20030;-86
2021/11/08 01:42:06;;;;;;;41.20;22.50;;;;;;;9.37;100.00;97388.13;4970778;28;20094;-86
2021/11/08 01:44:32;;;;;;;43.33;22.08;;;;;;;9.35;100.00;97389.16;4976089;28;20038;-86
2021/11/08 01:46:59;;;;;;;42.72;22.92;;;;;;;9.29;100.00;97384.19;4976369;28;20537;-86
2021/11/08 01:49:25;;;;;;;39.28;21.30;;;;;;;9.18;100.00;97372.34;4983993;28;20054;-86
2021/11/08 01:51:51;;;;;;;45.53;22.42;;;;;;;9.36;100.00;97381.06;4995486;28;20041;-86
2021/11/08 01:54:18;;;;;;;45.70;23.95;;;;;;;9.27;100.00;97382.47;4995154;28;20037;-86
2021/11/08 01:56:45;;;;;;;45.38;24.00;;;;;;;9.26;100.00;97388.75;4987160;28;20041;-84
2021/11/08 01:59:11;;;;;;;47.38;24.95;;;;;;;9.14;100.00;97377.94;5010942;28;20041;-84
2021/11/08 02:01:37;;;;;;;45.55;24.05;;;;;;;9.08;100.00;97364.97;5007175;28;20088;-85
2021/11/08 02:04:03;;;;;;;49.00;24.90;;;;;;;9.16;100.00;97378.72;4994780;28;20029;-84
2021/11/08 02:06:29;;;;;;;44.75;24.50;;;;;;;9.15;100.00;97374.31;4995601;28;20026;-85
2021/11/08 02:08:55;;;;;;;43.78;23.38;;;;;;;9.17;100.00;97381.28;5011310;28;20088;-84
2021/11/08 02:11:21;;;;;;;41.40;23.00;;;;;;;9.27;100.00;97374.47;4995535;28;20034;-84
2021/11/08 02:13:48;;;;;;;43.55;24.70;;;;;;;9.23;100.00;97362.25;5011583;28;20030;-85
2021/11/08 02:16:15;;;;;;;49.05;24.75;;;;;;;9.37;100.00;97371.25;4994688;28;20022;-84
2021/11/08 02:18:41;;;;;;;43.92;22.13;;;;;;;9.34;100.00;97366.94;4991435;28;20402;-86
2021/11/08 02:21:10;;;;;;;38.72;22.42;;;;;;;9.34;100.00;97358.94;5009778;28;20029;-85
2021/11/08 02:23:37;;;;;;;45.53;24.10;;;;;;;9.29;100.00;97360.19;4994902;28;20374;-84
2021/11/08 02:26:05;;;;;;;50.58;26.63;;;;;;;9.35;100.00;97357.97;4994897;28;20068;-83
2021/11/08 02:28:31;;;;;;;48.38;25.63;;;;;;;9.36;100.00;97361.50;5007538;28;20030;-84
2021/11/08 02:30:58;;;;;;;50.17;29.73;;;;;;;9.34;100.00;97348.28;5008381;28;20386;-85
2021/11/08 02:33:26;;;;;;;49.08;26.00;;;;;;;9.31;100.00;97351.13;4994854;28;20026;-84
2021/11/08 02:35:56;;;;;;;48.50;25.75;;;;;;;9.40;100.00;97357.72;4997817;28;20096;-85
2021/11/08 02:38:24;;;;;;;45.88;25.10;;;;;;;9.27;100.00;97347.78;4997728;28;20033;-84
2021/11/08 02:40:51;;;;;;;41.20;22.88;;;;;;;9.23;100.00;97348.91;5015406;28;20131;-84
2021/11/08 02:43:21;;;;;;;48.17;25.95;;;;;;;9.04;100.00;97329.63;4998456;28;20038;-84
2021/11/08 02:45:51;;;;;;;45.83;25.13;;;;;;;8.98;100.00;97331.78;5013544;28;20050;-84
2021/11/08 02:48:16;;;;;;;48.53;24.98;;;;;;;8.89;100.00;97337.66;5014548;28;20444;-84
2021/11/08 02:50:42;;;;;;;48.03;24.25;;;;;;;8.75;100.00;97346.47;5005633;28;20060;-84
2021/11/08 02:53:13;;;;;;;48.08;24.08;;;;;;;8.71;100.00;97348.44;5010118;28;20022;-85
2021/11/08 02:55:39;;;;;;;44.80;25.05;;;;;;;8.70;100.00;97344.03;5010757;28;20096;-84
2021/11/08 02:58:04;;;;;;;40.70;24.15;;;;;;;8.69;100.00;97352.16;4993249;28;20030;-85
2021/11/08 03:00:30;;;;;;;41.53;23.80;;;;;;;8.66;100.00;97336.31;4998570;28;20096;-85
2021/11/08 03:02:57;;;;;;;42.40;23.75;;;;;;;8.74;100.00;97352.72;4995295;28;20066;-85
2021/11/08 03:05:33;;;;;;;44.13;23.23;;;;;;;8.74;100.00;97342.06;5013883;28;20033;-84
2021/11/08 03:08:08;;;;;;;41.30;23.25;;;;;;;8.77;100.00;97349.88;5015792;28;20083;-84
2021/11/08 03:10:36;;;;;;;48.03;23.63;;;;;;;8.69;100.00;97344.16;4982356;28;20481;-84
2021/11/08 03:13:12;;;;;;;53.45;23.75;;;;;;;8.64;100.00;97340.91;5014456;28;20036;-85
2021/11/08 03:18:07;;;;;;;45.40;25.40;;;;;;;8.57;100.00;97331.53;5012140;28;20042;-85
2021/11/08 03:20:34;;;;;;;46.90;25.42;;;;;;;8.49;100.00;97317.78;5005387;28;20081;-85
2021/11/08 03:23:04;;;;;;;43.78;23.38;;;;;;;8.50;100.00;97328.34;4998287;28;20040;-85
2021/11/08 03:28:03;;;;;;;46.90;21.65;;;;;;;8.64;100.00;97328.41;5030532;28;20459;-85
2021/11/08 03:30:43;;;;;;;44.35;25.17;;;;;;;8.66;100.00;97325.66;5012251;28;20121;-86
2021/11/08 03:33:11;;;;;;;40.55;22.52;;;;;;;8.56;100.00;97319.13;4999445;28;20110;-84
2021/11/08 03:35:38;;;;;;;43.38;21.95;;;;;;;8.51;100.00;97313.22;5023034;28;20018;-86
2021/11/08 03:38:06;;;;;;;38.67;22.42;;;;;;;8.52;100.00;97312.28;5011249;28;20503;-85
2021/11/08 03:40:36;;;;;;;44.15;22.05;;;;;;;8.46;100.00;97291.31;5005467;28;20127;-85
2021/11/08 03:43:05;;;;;;;42.15;22.52;;;;;;;8.54;100.00;97305.03;4992261;28;20128;-85
2021/11/08 03:45:31;;;;;;;47.10;23.90;;;;;;;8.49;100.00;97307.97;4995753;28;20030;-84
2021/11/08 03:47:58;;;;;;;45.28;22.65;;;;;;;8.54;100.00;97295.25;5014196;28;20033;-85
2021/11/08 03:50:24;;;;;;;42.55;23.13;;;;;;;8.56;100.00;97297.81;4996869;28;20489;-85
2021/11/08 03:52:49;;;;;;;52.70;25.42;;;;;;;8.38;100.00;97296.22;4997665;28;20032;-84
2021/11/08 03:55:16;;;;;;;45.90;24.05;;;;;;;8.44;100.00;97303.84;5013944;28;20033;-84
2021/11/08 03:57:42;;;;;;;43.92;22.92;;;;;;;8.39;100.00;97289.94;4989223;28;20037;-85
2021/11/08 04:00:11;;;;;;;67.03;31.90;;;;;;;8.29;100.00;97281.59;5013916;28;20030;-85
2021/11/08 04:02:38;;;;;;;45.42;23.85;;;;;;;8.28;100.00;97287.88;4997147;28;20036;-85
2021/11/08 04:05:05;;;;;;;38.28;21.15;;;;;;;8.25;100.00;97287.16;4997284;28;20105;-85
2021/11/08 04:07:31;;;;;;;42.00;22.77;;;;;;;8.19;100.00;97283.03;4996823;28;20025;-85
2021/11/08 04:09:57;;;;;;;40.42;21.55;;;;;;;8.14;100.00;97293.97;5013760;28;20103;-85
2021/11/08 04:12:24;;;;;;;38.58;21.25;;;;;;;7.96;100.00;97289.69;4996791;28;20404;-84
2021/11/08 04:14:50;;;;;;;31.55;19.98;;;;;;;7.80;100.00;97277.28;5013435;28;20029;-86
2021/11/08 04:17:20;;;;;;;34.78;19.83;;;;;;;7.76;100.00;97279.25;4997049;28;20026;-86
2021/11/08 04:19:46;;;;;;;34.63;20.00;;;;;;;7.82;100.00;97286.03;4997159;28;20030;-85
2021/11/08 04:22:11;;;;;;;36.53;20.48;;;;;;;7.85;100.00;97297.38;4996784;28;20057;-86
2021/11/08 04:24:37;;;;;;;42.67;21.35;;;;;;;7.82;100.00;97289.56;5013376;28;20115;-85
2021/11/08 04:27:03;;;;;;;40.95;22.17;;;;;;;7.76;100.00;97286.38;4997487;28;20029;-86
2021/11/08 04:29:29;;;;;;;42.00;24.58;;;;;;;7.77;100.00;97291.63;5013463;28;20165;-86
2021/11/08 04:31:55;;;;;;;49.25;25.90;;;;;;;7.77;100.00;97280.97;5013014;28;20030;-85
2021/11/08 04:34:28;;;;;;;57.42;27.90;;;;;;;7.81;100.00;97287.88;4996830;28;20052;-84
2021/11/08 04:39:32;;;;;;;47.05;25.95;;;;;;;7.99;100.00;97297.50;5013014;28;20033;-85
2021/11/08 04:44:47;;;;;;;49.83;25.65;;;;;;;7.99;100.00;97300.16;5013260;28;20069;-86
2021/11/08 04:50:19;;;;;;;49.97;26.52;;;;;;;7.91;100.00;97302.38;5007782;28;20057;-86
2021/11/08 04:58:19;;;;;;;65.75;31.80;;;;;;;7.93;100.00;97303.16;4992618;28;20057;-85
2021/11/08 05:30:35;;;;;;;53.97;27.42;;;;;;;9.01;100.00;97326.28;4993416;28;20037;-88
2021/11/08 05:33:01;;;;;;;44.95;25.98;;;;;;;9.24;100.00;97329.28;4981863;28;20027;-88
2021/11/08 05:35:27;;;;;;;49.10;24.52;;;;;;;9.48;100.00;97326.06;4993500;28;20058;-89
2021/11/08 05:37:53;;;;;;;57.15;31.02;;;;;;;9.65;100.00;97337.44;4987250;28;20065;-89
2021/11/08 05:40:27;;;;;;;72.88;39.97;;;;;;;9.89;100.00;97329.72;4977842;28;20076;-89
2021/11/08 05:42:53;;;;;;;73.80;40.95;;;;;;;10.02;100.00;97333.34;4977379;28;20042;-88
2021/11/08 05:45:18;;;;;;;75.75;41.38;;;;;;;10.22;100.00;97324.94;4992950;28;20030;-88
2021/11/08 05:47:45;;;;;;;71.88;38.80;;;;;;;10.27;100.00;97327.31;4977334;28;20414;-89
2021/11/08 05:50:14;;;;;;;77.35;39.70;;;;;;;10.61;100.00;97326.00;4989470;28;20111;-74
2021/11/08 05:52:40;;;;;;;58.13;33.30;;;;;;;10.89;100.00;97334.75;4986578;28;20026;-76
2021/11/08 05:55:09;;;;;;;62.25;33.10;;;;;;;11.01;100.00;97333.09;5012758;28;20457;-74
2021/11/08 06:51:33;;;;;;;85.15;38.10;;;;;;;13.31;87.27;97311.03;5013518;28;20033;-86
2021/11/08 06:54:02;;;;;;;64.57;39.03;;;;;;;13.19;89.30;97320.03;5016375;28;20489;-86
2021/11/08 06:56:31;;;;;;;89.75;41.80;;;;;;;13.43;89.63;97319.97;5007360;28;20136;-86
2021/11/08 06:58:57;;;;;;;90.10;42.50;;;;;;;15.10;80.48;97316.22;4988565;28;20033;-86
2021/11/08 07:01:23;;;;;;;88.93;45.25;;;;;;;16.75;69.90;97317.09;5028040;28;20484;-86
2021/11/08 07:03:48;;;;;;;79.43;43.70;;;;;;;17.96;63.66;97307.56;5019320;28;20121;-88
2021/11/08 07:06:14;;;;;;;81.28;44.60;;;;;;;18.70;59.31;97303.84;5018698;28;20061;-89
2021/11/08 07:08:40;;;;;;;87.95;45.05;;;;;;;19.54;56.10;97309.84;5024916;28;20041;-73
2021/11/08 07:11:05;;;;;;;74.60;39.30;;;;;;;19.99;54.21;97315.97;5005274;28;20034;-73
2021/11/08 07:13:31;;;;;;;69.90;36.75;;;;;;;20.48;52.47;97291.88;5031871;28;20816;-74
2021/11/08 07:15:56;;;;;;;69.22;34.80;;;;;;;20.40;53.19;97313.53;4993187;28;20037;-74
2021/11/08 07:18:22;;;;;;;61.50;28.10;;;;;;;20.49;52.56;97296.25;5027501;28;20116;-73
2021/11/08 07:20:49;;;;;;;55.70;24.67;;;;;;;19.97;54.39;97309.00;5028242;28;20467;-73
2021/11/08 07:23:15;;;;;;;45.50;23.67;;;;;;;20.67;52.49;97299.78;5014995;28;20540;-73
2021/11/08 07:25:42;;;;;;;38.92;20.15;;;;;;;21.17;51.13;97296.19;5006058;28;20076;-73
2021/11/08 07:28:11;;;;;;;33.95;18.90;;;;;;;21.61;49.55;97300.34;4996427;28;20065;-74
2021/11/08 07:30:38;;;;;;;42.50;18.33;;;;;;;22.07;48.62;97323.34;5008849;28;20022;-72
2021/11/08 07:33:04;;;;;;;29.23;16.63;;;;;;;22.05;48.35;97314.50;5018532;28;20041;-73
2021/11/08 07:35:29;;;;;;;27.75;16.35;;;;;;;22.54;47.33;97313.38;5031878;28;20018;-73
2021/11/08 07:37:55;;;;;;;35.85;18.20;;;;;;;22.58;47.96;97311.97;5030511;28;20546;-73
2021/11/08 07:40:21;;;;;;;28.70;16.67;;;;;;;22.16;48.30;97300.50;5013960;28;20514;-74
2021/11/08 07:42:48;;;;;;;41.92;25.20;;;;;;;22.76;47.07;97303.63;5031544;28;20524;-73
2021/11/08 07:45:13;;;;;;;37.92;21.58;;;;;;;22.76;47.49;97303.63;5013284;28;20085;-72
2021/11/08 07:47:39;;;;;;;41.28;21.48;;;;;;;22.80;47.68;97313.13;5014552;28;20124;-73
2021/11/08 07:50:05;;;;;;;32.72;19.13;;;;;;;22.15;48.72;97304.25;5010713;28;20049;-74
2021/11/08 07:52:31;;;;;;;35.58;19.25;;;;;;;22.57;48.23;97312.16;5026396;28;20026;-74
2021/11/08 07:54:57;;;;;;;29.10;16.88;;;;;;;22.71;47.49;97300.53;5021267;28;20532;-74
2021/11/08 07:57:22;;;;;;;27.05;15.27;;;;;;;22.14;48.62;97300.69;5007022;28;20025;-74
2021/11/08 07:59:48;;;;;;;26.48;14.60;;;;;;;23.09;46.50;97287.94;5032414;28;20104;-73
2021/11/08 08:02:14;;;;;;;23.92;14.77;;;;;;;23.69;45.39;97290.75;5014790;28;20134;-74
2021/11/08 08:04:40;;;;;;;35.08;14.35;;;;;;;23.99;44.79;97287.13;5030984;28;20044;-73
2021/11/08 08:07:06;;;;;;;27.38;14.88;;;;;;;23.99;44.71;97286.25;5014355;28;20033;-73
2021/11/08 08:09:32;;;;;;;34.10;16.40;;;;;;;24.28;44.30;97286.31;5014622;28;20026;-73
2021/11/08 08:11:58;;;;;;;22.65;13.57;;;;;;;23.97;44.61;97283.69;5013034;28;20057;-72
2021/11/08 08:14:24;;;;;;;34.70;14.20;;;;;;;24.69;43.55;97273.03;5010954;28;20029;-73
2021/11/08 08:16:49;;;;;;;25.75;14.40;;;;;;;24.94;43.17;97282.69;5030671;28;20079;-72
2021/11/08 08:19:15;;;;;;;44.42;16.10;;;;;;;25.55;42.98;97299.63;5023525;28;20451;-73
2021/11/08 08:21:41;;;;;;;23.58;13.52;;;;;;;25.76;41.11;97289.53;5026473;28;20036;-73
2021/11/08 08:24:07;;;;;;;32.80;13.48;;;;;;;26.45;40.05;97284.22;5013816;28;20025;-74
2021/11/08 08:26:36;;;;;;;31.38;15.07;;;;;;;26.35;40.07;97290.06;5029900;28;20515;-73
2021/11/08 08:29:05;;;;;;;26.40;13.57;;;;;;;26.36;39.57;97297.22;5011522;28;20104;-74
2021/11/08 08:31:31;;;;;;;31.70;13.45;;;;;;;26.69;39.37;97286.50;4991388;28;20404;-72
2021/11/08 08:33:57;;;;;;;25.92;12.75;;;;;;;25.09;41.89;97291.72;5014608;28;20049;-74
2021/11/08 08:36:22;;;;;;;20.80;11.80;;;;;;;25.65;40.85;97289.22;5013192;28;20068;-74
2021/11/08 08:38:50;;;;;;;21.40;11.27;;;;;;;25.99;40.00;97294.81;5006471;28;20029;-80
2021/11/08 08:41:16;;;;;;;24.27;10.88;;;;;;;26.92;38.17;97283.47;4992029;28;20029;-74
2021/11/08 08:43:41;;;;;;;19.52;11.10;;;;;;;27.41;37.53;97292.31;5029395;28;20029;-73
2021/11/08 08:46:07;;;;;;;27.02;11.70;;;;;;;27.88;36.44;97280.41;5018586;28;20018;-73
2021/11/08 08:48:33;;;;;;;21.65;11.23;;;;;;;28.26;35.85;97280.66;5028798;28;20041;-75
2021/11/08 08:51:01;;;;;;;36.03;15.10;;;;;;;28.86;35.05;97287.78;5012090;28;20404;-75
2021/11/08 08:53:27;;;;;;;28.00;13.70;;;;;;;29.26;34.05;97277.50;5018224;28;20022;-75
2021/11/08 08:55:52;;;;;;;30.73;13.45;;;;;;;28.80;34.07;97276.78;5013517;28;20033;-74
2021/11/08 08:58:19;;;;;;;32.45;14.85;;;;;;;28.54;34.13;97277.69;5029787;28;20503;-74
2021/11/08 09:00:47;;;;;;;33.97;16.88;;;;;;;28.49;34.39;97278.31;5030731;28;20103;-74
2021/11/08 09:03:14;;;;;;;38.70;16.50;;;;;;;28.70;34.07;97271.72;4997729;28;20037;-75
2021/11/08 09:05:40;;;;;;;33.75;17.17;;;;;;;29.35;33.13;97276.19;5019816;28;20034;-74
2021/11/08 09:08:06;;;;;;;29.05;16.10;;;;;;;29.51;32.20;97264.66;5000673;28;20029;-75
2021/11/08 09:10:33;;;;;;;32.42;14.43;;;;;;;29.38;32.22;97266.63;5010295;28;20531;-74
2021/11/08 09:13:00;;;;;;;31.30;14.23;;;;;;;30.29;31.16;97267.94;5014933;28;20537;-75
2021/11/08 09:15:30;;;;;;;56.55;24.48;;;;;;;30.40;31.08;97261.69;5004944;28;20470;-75
2021/11/08 09:17:57;;;;;;;67.75;26.00;;;;;;;29.50;32.14;97273.97;5011852;28;20086;-75
2021/11/08 09:20:23;;;;;;;65.20;26.63;;;;;;;29.72;32.59;97268.97;5002883;28;20030;-77
2021/11/08 09:22:50;;;;;;;54.38;23.77;;;;;;;29.41;32.59;97269.78;5020099;28;20030;-76
2021/11/08 09:25:19;;;;;;;61.17;23.75;;;;;;;29.68;31.96;97261.38;5001768;28;20026;-76
2021/11/08 09:27:46;;;;;;;55.47;23.67;;;;;;;30.68;30.70;97254.81;5022786;28;20040;-75
2021/11/08 09:30:14;;;;;;;59.25;24.98;;;;;;;30.92;30.67;97245.63;4997600;28;20025;-76
2021/11/08 09:32:39;;;;;;;56.20;25.73;;;;;;;31.35;29.78;97246.38;5009881;28;20532;-75
2021/11/08 09:35:06;;;;;;;56.60;26.60;;;;;;;31.34;29.49;97232.81;4995921;28;20035;-75
2021/11/08 09:37:34;;;;;;;56.97;24.65;;;;;;;31.65;29.16;97233.44;5012277;28;20550;-75
2021/11/08 09:40:00;;;;;;;87.53;34.75;;;;;;;32.31;28.61;97232.38;5028659;28;20097;-76
2021/11/08 09:42:28;;;;;;;62.97;24.48;;;;;;;31.99;28.67;97220.78;5017267;28;20057;-75
2021/11/08 09:44:54;;;;;;;49.53;20.13;;;;;;;32.46;27.59;97220.81;5028162;28;20037;-76
2021/11/08 09:47:20;;;;;;;36.22;15.70;;;;;;;32.87;27.47;97226.25;4997033;28;20030;-75
2021/11/08 09:49:57;;;;;;;38.03;14.13;;;;;;;32.97;27.61;97231.19;4994117;28;20049;-75
2021/11/08 09:52:24;;;;;;;35.15;15.23;;;;;;;32.72;28.40;97220.38;5012556;28;20035;-74
2021/11/08 09:54:50;;;;;;;30.35;11.80;;;;;;;32.89;28.01;97224.06;5004774;28;20033;-75
2021/11/08 09:57:17;;;;;;;24.90;10.55;;;;;;;33.67;27.19;97210.47;5028557;28;20039;-75
2021/11/08 09:59:43;;;;;;;26.90;9.73;;;;;;;34.20;26.72;97207.28;5029382;28;20033;-76
2021/11/08 10:02:14;;;;;;;33.20;10.10;;;;;;;34.15;26.83;97215.50;5005293;28;20516;-75
2021/11/08 10:04:41;;;;;;;20.75;9.50;;;;;;;34.68;26.11;97212.22;4995652;28;20033;-76
2021/11/08 10:07:07;;;;;;;26.17;9.52;;;;;;;34.35;25.37;97203.91;5012505;28;20064;-76
2021/11/08 10:09:32;;;;;;;25.23;9.32;;;;;;;34.23;28.06;97200.38;5014091;28;20544;-77
2021/11/08 10:11:58;;;;;;;22.65;10.18;;;;;;;34.10;37.93;97264.56;5001651;28;20106;-75
2021/11/08 10:14:24;;;;;;;35.22;10.68;;;;;;;34.26;32.72;97231.28;5011730;28;20025;-76
2021/11/08 10:16:51;;;;;;;22.10;10.07;;;;;;;35.32;31.34;97238.41;5013830;28;20033;-76
2021/11/08 10:19:22;;;;;;;26.67;10.18;;;;;;;35.97;29.08;97231.91;4981752;28;20108;-74
2021/11/08 10:21:51;;;;;;;20.25;9.55;;;;;;;34.61;28.97;97216.28;5014829;28;20033;-75
2021/11/08 10:24:29;;;;;;;26.90;8.20;;;;;;;33.58;29.72;97213.88;4997404;28;20503;-76
2021/11/08 10:26:56;;;;;;;22.75;8.45;;;;;;;32.33;32.97;97226.63;4996510;28;20029;-75
2021/11/08 10:29:23;;;;;;;18.85;8.88;;;;;;;33.30;30.76;97228.56;5012913;28;20521;-75
2021/11/08 10:32:01;;;;;;;35.10;9.05;;;;;;;34.44;28.16;97213.50;5013302;28;20052;-75
2021/11/08 10:34:29;;;;;;;22.58;7.78;;;;;;;34.76;27.47;97203.41;5027833;28;20057;-75
2021/11/08 10:36:58;;;;;;;24.52;9.75;;;;;;;33.93;25.00;97183.19;5030818;28;20112;-76
2021/11/08 10:39:24;;;;;;;22.42;9.30;;;;;;;31.95;27.89;97186.34;5010528;28;20029;-75
2021/11/08 10:41:50;;;;;;;22.05;9.30;;;;;;;31.48;30.08;97188.13;4993223;28;20463;-74
2021/11/08 10:44:21;;;;;;;20.55;8.52;;;;;;;30.71;30.72;97196.34;5010038;28;20195;-75
2021/11/08 10:46:49;;;;;;;32.78;10.75;;;;;;;31.82;29.83;97207.84;4994969;28;20029;-77
2021/11/08 10:49:17;;;;;;;19.83;9.27;;;;;;;32.63;26.98;97178.34;4988437;28;20061;-78
2021/11/08 10:51:50;;;;;;;29.83;9.88;;;;;;;34.30;26.13;97187.16;4993113;28;20695;-78
2021/11/08 10:54:30;;;;;;;22.85;8.80;;;;;;;34.43;27.46;97183.16;4996076;28;20029;-77
2021/11/08 10:57:00;;;;;;;19.38;7.90;;;;;;;32.31;28.98;97196.38;5013314;28;20036;-77
2021/11/08 10:59:31;;;;;;;17.02;8.00;;;;;;;29.85;31.00;97199.09;5031587;28;20025;-76
2021/11/08 11:01:59;;;;;;;19.83;9.50;;;;;;;29.32;33.08;97204.97;5015134;28;20025;-78
2021/11/08 11:04:43;;;;;;;28.77;11.75;;;;;;;28.65;34.49;97230.22;5030971;28;20036;-78
2021/11/08 11:10:05;;;;;;;13.75;8.10;;;;;;;29.11;34.17;97232.81;5018124;28;20036;-79
2021/11/08 11:12:31;;;;;;;23.92;8.43;;;;;;;26.53;37.69;97231.06;5027438;28;20400;-78
2021/11/08 11:15:03;;;;;;;12.88;8.20;;;;;;;24.83;41.12;97254.94;4987236;28;20026;-77
2021/11/08 11:17:31;;;;;;;15.38;8.45;;;;;;;25.03;40.69;97247.84;5032773;28;20455;-78
2021/11/08 11:20:04;;;;;;;22.52;8.30;;;;;;;24.44;42.56;97268.91;4989635;28;20025;-78
2021/11/08 11:22:31;;;;;;;13.80;9.30;;;;;;;24.32;42.96;97275.88;5032482;28;20029;-78
2021/11/08 11:24:57;;;;;;;14.13;8.85;;;;;;;23.82;44.56;97281.97;5008095;28;20057;-78
2021/11/08 11:27:28;;;;;;;25.35;9.48;;;;;;;22.95;46.11;97297.69;5013218;28;20084;-79
2021/11/08 11:30:06;;;;;;;19.70;10.10;;;;;;;22.82;47.28;97310.22;5014514;28;20025;-77
2021/11/08 11:32:32;;;;;;;15.55;9.88;;;;;;;22.94;47.48;97306.94;5028295;28;20025;-79
2021/11/08 11:34:57;;;;;;;26.35;9.50;;;;;;;23.75;45.64;97315.47;5014833;28;20030;-79
2021/11/08 11:37:27;;;;;;;21.63;11.00;;;;;;;22.92;47.12;97322.63;5015041;28;20038;-79
2021/11/08 11:40:05;;;;;;;32.70;10.35;;;;;;;23.03;47.88;97341.34;5027034;28;20112;-84
2021/11/08 11:42:31;;;;;;;28.65;11.32;;;;;;;22.75;48.65;97351.00;5016780;28;20053;-81
2021/11/08 11:45:04;;;;;;;28.17;10.68;;;;;;;22.70;49.01;97347.97;5003761;28;20064;-82
2021/11/08 11:47:30;;;;;;;37.78;11.32;;;;;;;23.08;48.74;97366.22;5002557;28;20084;-83
2021/11/08 11:49:56;;;;;;;27.83;10.13;;;;;;;23.35;47.17;97347.66;5000321;28;20081;-81
2021/11/08 11:52:23;;;;;;;36.35;11.15;;;;;;;22.88;47.68;97373.13;5006599;28;20036;-83
2021/11/08 11:54:48;;;;;;;34.13;10.75;;;;;;;22.81;47.47;97384.91;5019110;28;20394;-84
2021/11/08 11:57:14;;;;;;;34.28;10.90;;;;;;;23.45;45.71;97376.47;5000786;28;20033;-77
2021/11/08 11:59:40;;;;;;;34.58;14.30;;;;;;;24.50;42.80;97372.06;5031607;28;20049;-76
2021/11/08 12:02:06;;;;;;;170.93;114.00;;;;;;;25.69;40.83;97369.97;5031108;28;20767;-77
2021/11/08 12:04:32;;;;;;;20.60;10.85;;;;;;;25.67;39.69;97377.53;5030839;28;20083;-77
2021/11/08 12:07:04;;;;;;;16.35;8.80;;;;;;;25.33;39.70;97379.00;5013736;28;20041;-77
2021/11/08 12:09:34;;;;;;;58.85;33.65;;;;;;;25.16;39.80;97391.19;5014110;28;20025;-77
2021/11/08 12:12:00;;;;;;;16.88;8.48;;;;;;;24.81;40.23;97394.69;5030389;28;20033;-77
2021/11/08 12:14:29;;;;;;;25.20;9.93;;;;;;;25.27;40.26;97404.44;5016953;28;20056;-77
2021/11/08 12:17:05;;;;;;;15.65;9.77;;;;;;;24.41;41.15;97406.88;5008561;28;20042;-77
2021/11/08 12:19:35;;;;;;;25.88;10.35;;;;;;;23.59;42.93;97415.81;5031477;28;20035;-77
2021/11/08 12:22:33;;;;;;;20.38;9.25;;;;;;;23.43;43.55;97433.13;4994933;28;20037;-76
2021/11/08 12:25:00;;;;;;;22.85;9.35;;;;;;;22.51;45.49;97430.09;4968441;28;20186;-76
2021/11/08 12:27:43;;;;;;;17.83;9.60;;;;;;;22.69;45.39;97438.97;5013596;28;20037;-78
2021/11/08 12:30:32;;;;;;;19.88;9.60;;;;;;;22.40;46.21;97444.06;4997248;28;20073;-77
2021/11/08 12:33:01;;;;;;;43.08;11.52;;;;;;;21.96;46.92;97441.69;4997313;28;20037;-76
2021/11/08 12:35:35;;;;;;;60.15;13.15;;;;;;;21.66;47.94;97446.88;4997511;28;20044;-75
2021/11/08 12:38:14;;;;;;;52.28;11.60;;;;;;;21.29;48.66;97450.81;4999728;28;20033;-76
2021/11/08 12:40:41;;;;;;;44.35;10.43;;;;;;;21.16;49.91;97457.75;5013669;28;20069;-77
2021/11/08 12:43:07;;;;;;;37.03;9.70;;;;;;;21.61;48.73;97450.94;5013705;28;20345;-77
2021/11/08 12:45:39;;;;;;;29.85;12.30;;;;;;;21.52;48.67;97472.84;5030940;28;20036;-76
2021/11/08 12:48:10;;;;;;;41.75;17.92;;;;;;;21.20;49.06;97453.66;5014110;28;20488;-76
2021/11/08 12:50:47;;;;;;;29.60;10.80;;;;;;;21.14;49.75;97470.63;5029421;28;20455;-76
2021/11/08 12:53:26;;;;;;;25.13;11.38;;;;;;;21.24;49.63;97471.38;5014084;28;21233;-76
2021/11/08 12:55:56;;;;;;;24.67;10.25;;;;;;;21.34;48.98;97466.66;5030368;28;20026;-76
2021/11/08 12:58:45;;;;;;;19.20;9.65;;;;;;;21.28;48.87;97462.75;5002453;28;20033;-76
2021/11/08 13:01:15;;;;;;;21.00;9.82;;;;;;;20.96;49.72;97468.81;5030449;28;20556;-78
2021/11/08 13:03:43;;;;;;;18.75;10.10;;;;;;;20.99;50.05;97478.53;5030299;28;20112;-75
2021/11/08 13:06:22;;;;;;;20.88;10.48;;;;;;;21.06;50.12;97464.13;5013598;28;20025;-77